createdAt,value
2022-10-31T00:01:36.993Z,11.71
2022-10-31T00:04:06.178Z,11.72
2022-10-31T00:06:33.876Z,11.71
2022-10-31T00:09:04.998Z,11.75
2022-10-31T00:11:32.861Z,11.72
2022-10-31T00:14:00.964Z,11.72
2022-10-31T00:16:30.160Z,11.73
2022-10-31T00:19:01.452Z,11.69
2022-10-31T00:21:30.335Z,11.65
2022-10-31T00:23:59.702Z,11.63
2022-10-31T00:26:32.436Z,11.64
2022-10-31T00:29:01.389Z,11.68
2022-10-31T00:31:29.777Z,11.71
2022-10-31T00:33:59.248Z,11.70
2022-10-31T00:36:27.943Z,11.71
2022-10-31T00:38:56.003Z,11.67
2022-10-31T00:41:25.413Z,11.64
2022-10-31T00:43:53.111Z,11.63
2022-10-31T00:46:20.896Z,11.63
2022-10-31T00:48:48.540Z,11.62
2022-10-31T00:51:16.197Z,11.61
2022-10-31T00:53:43.890Z,11.60
2022-10-31T00:56:12.052Z,11.61
2022-10-31T00:58:39.749Z,11.62
2022-10-31T01:01:08.527Z,11.66
2022-10-31T01:03:36.846Z,11.72
2022-10-31T01:06:10.174Z,11.76
2022-10-31T01:08:39.227Z,11.78
2022-10-31T01:11:11.590Z,11.81
2022-10-31T01:13:41.479Z,11.78
2022-10-31T01:16:13.868Z,11.75
2022-10-31T01:18:41.585Z,11.77
2022-10-31T01:21:30.210Z,11.80
2022-10-31T01:24:03.075Z,11.80
2022-10-31T01:26:33.380Z,11.85
2022-10-31T01:29:06.332Z,11.85
2022-10-31T01:31:39.096Z,11.83
2022-10-31T01:34:07.681Z,11.78
2022-10-31T01:36:39.045Z,11.74
2022-10-31T01:39:14.437Z,11.74
2022-10-31T01:41:49.607Z,11.77
2022-10-31T01:44:17.439Z,11.82
2022-10-31T01:46:59.816Z,11.83
2022-10-31T01:49:39.592Z,11.85
2022-10-31T01:52:56.483Z,11.90
2022-10-31T01:55:46.021Z,11.94
2022-10-31T01:58:24.594Z,11.95
2022-10-31T02:00:59.621Z,11.97
2022-10-31T02:03:31.765Z,12.01
2022-10-31T02:05:59.892Z,12.06
2022-10-31T02:08:31.191Z,12.12
2022-10-31T02:11:01.802Z,12.12
2022-10-31T02:13:30.778Z,12.16
2022-10-31T02:15:59.724Z,12.18
2022-10-31T02:18:31.543Z,12.16
2022-10-31T02:21:20.461Z,12.23
2022-10-31T02:23:57.229Z,12.38
2022-10-31T02:26:43.642Z,12.42
2022-10-31T02:29:18.192Z,12.47
2022-10-31T02:32:29.685Z,12.50
2022-10-31T02:35:38.362Z,12.51
2022-10-31T02:38:28.009Z,12.49
2022-10-31T02:41:20.978Z,12.48
2022-10-31T02:44:23.184Z,12.43
2022-10-31T02:47:03.320Z,12.43
2022-10-31T02:49:41.178Z,12.47
2022-10-31T02:52:21.318Z,12.42
2022-10-31T02:54:49.734Z,12.35
2022-10-31T02:57:30.796Z,12.25
2022-10-31T03:00:09.239Z,12.25
2022-10-31T03:03:02.030Z,12.23
2022-10-31T03:06:21.385Z,12.21
2022-10-31T03:09:12.574Z,12.20
2022-10-31T03:11:57.164Z,12.23
2022-10-31T03:14:38.699Z,12.21
2022-10-31T03:17:20.494Z,12.20
2022-10-31T03:19:55.546Z,12.17
2022-10-31T03:22:27.304Z,12.12
2022-10-31T03:24:57.504Z,12.12
2022-10-31T03:27:31.696Z,12.09
2022-10-31T03:30:05.767Z,12.05
2022-10-31T03:32:48.319Z,12.05
2022-10-31T03:35:21.853Z,12.05
2022-10-31T03:37:53.849Z,12.09
2022-10-31T03:40:27.093Z,12.09
2022-10-31T03:43:04.324Z,12.06
2022-10-31T03:45:36.973Z,12.03
2022-10-31T03:48:05.395Z,12.05
2022-10-31T03:51:02.719Z,12.06
2022-10-31T03:53:46.665Z,12.13
2022-10-31T03:56:30.084Z,12.22
2022-10-31T03:59:18.897Z,12.27
2022-10-31T04:01:54.786Z,12.30
2022-10-31T04:04:22.912Z,12.28
2022-10-31T04:06:52.986Z,12.29
2022-10-31T04:09:22.733Z,12.30
2022-10-31T04:11:55.221Z,12.32
2022-10-31T04:14:51.553Z,12.29
2022-10-31T04:17:24.629Z,12.29
2022-10-31T04:19:52.398Z,12.31
2022-10-31T04:22:20.201Z,12.39
2022-10-31T04:24:47.879Z,12.47
2022-10-31T04:27:16.698Z,12.46
2022-10-31T04:29:46.914Z,12.45
2022-10-31T04:32:18.624Z,12.44
2022-10-31T04:34:46.349Z,12.47
2022-10-31T04:37:14.181Z,12.48
2022-10-31T04:39:41.940Z,12.51
2022-10-31T04:42:41.899Z,12.61
2022-10-31T04:45:10.690Z,12.63
2022-10-31T04:47:38.521Z,12.71
2022-10-31T04:50:07.733Z,12.70
2022-10-31T04:52:42.009Z,12.70
2022-10-31T04:55:12.192Z,12.73
2022-10-31T04:58:00.544Z,12.79
2022-10-31T05:00:28.850Z,12.82
2022-10-31T05:02:59.376Z,12.87
2022-10-31T05:05:31.787Z,12.84
2022-10-31T05:08:01.775Z,12.84
2022-10-31T05:10:32.021Z,12.82
2022-10-31T05:13:03.916Z,12.83
2022-10-31T05:16:01.087Z,12.85
2022-10-31T05:18:43.901Z,12.81
2022-10-31T05:21:17.878Z,12.83
2022-10-31T05:23:50.485Z,12.84
2022-10-31T05:26:18.318Z,12.85
2022-10-31T05:28:46.113Z,12.85
2022-10-31T05:31:13.941Z,12.84
2022-10-31T05:33:43.033Z,12.86
2022-10-31T05:36:29.364Z,12.91
2022-10-31T05:39:20.229Z,12.93
2022-10-31T05:41:49.712Z,12.89
2022-10-31T05:44:21.461Z,12.84
2022-10-31T05:46:58.158Z,12.83
2022-10-31T05:49:44.470Z,12.79
2022-10-31T05:52:31.010Z,12.79
2022-10-31T05:55:04.914Z,12.75
2022-10-31T05:57:34.652Z,12.77
2022-10-31T06:00:02.632Z,12.78
2022-10-31T06:02:35.452Z,12.80
2022-10-31T06:05:21.726Z,12.78
2022-10-31T06:07:49.596Z,12.78
2022-10-31T06:10:17.754Z,12.74
2022-10-31T06:12:45.938Z,12.71
2022-10-31T06:15:35.275Z,12.66
2022-10-31T06:18:06.477Z,12.64
2022-10-31T06:20:37.465Z,12.62
2022-10-31T06:23:06.155Z,12.59
2022-10-31T06:25:35.027Z,12.59
2022-10-31T06:28:06.129Z,12.54
2022-10-31T06:31:06.134Z,12.52
2022-10-31T06:33:35.678Z,12.48
2022-10-31T06:36:04.178Z,12.44
2022-10-31T06:38:32.088Z,12.41
2022-10-31T06:41:05.151Z,12.41
2022-10-31T06:43:53.087Z,12.40
2022-10-31T06:46:35.360Z,12.41
2022-10-31T06:49:23.775Z,12.42
2022-10-31T06:51:55.128Z,12.47
2022-10-31T06:54:23.194Z,12.46
2022-10-31T06:56:51.048Z,12.43
2022-10-31T06:59:18.895Z,12.44
2022-10-31T07:02:18.749Z,12.48
2022-10-31T07:04:46.476Z,12.55
2022-10-31T07:07:15.416Z,12.57
2022-10-31T07:09:43.140Z,12.59
2022-10-31T07:12:11.814Z,12.64
2022-10-31T07:14:41.739Z,12.67
2022-10-31T07:17:09.445Z,12.74
2022-10-31T07:19:40.618Z,12.71
2022-10-31T07:22:09.124Z,12.70
2022-10-31T07:24:37.847Z,12.80
2022-10-31T07:27:43.560Z,12.86
2022-10-31T07:30:14.877Z,12.94
2022-10-31T07:32:46.377Z,12.99
2022-10-31T07:35:22.849Z,13.02
2022-10-31T07:37:58.403Z,13.10
2022-10-31T07:40:26.707Z,13.14
2022-10-31T07:42:54.864Z,13.15
2022-10-31T07:45:40.987Z,13.21
2022-10-31T07:48:27.353Z,13.21
2022-10-31T07:51:14.019Z,13.26
2022-10-31T07:54:00.356Z,13.31
2022-10-31T07:56:31.093Z,13.33
2022-10-31T07:58:58.945Z,13.42
2022-10-31T08:01:26.891Z,13.54
2022-10-31T08:04:09.445Z,13.55
2022-10-31T08:06:55.986Z,13.60
2022-10-31T08:09:31.001Z,13.65
2022-10-31T08:12:00.408Z,13.65
2022-10-31T08:14:29.131Z,13.62
2022-10-31T08:16:57.498Z,13.65
2022-10-31T08:19:26.870Z,13.67
2022-10-31T08:21:58.966Z,13.70
2022-10-31T08:24:27.346Z,13.75
2022-10-31T08:26:56.066Z,13.81
2022-10-31T08:29:23.782Z,13.88
2022-10-31T08:31:52.382Z,13.88
2022-10-31T08:34:38.666Z,13.87
2022-10-31T08:37:25.046Z,13.86
2022-10-31T08:39:55.701Z,13.83
2022-10-31T08:42:23.566Z,13.88
2022-10-31T08:44:51.338Z,13.85
2022-10-31T08:47:21.962Z,13.92
2022-10-31T08:49:49.622Z,14.00
2022-10-31T08:52:17.355Z,14.09
2022-10-31T08:54:45.614Z,14.15
2022-10-31T08:57:31.986Z,14.27
2022-10-31T09:00:00.521Z,14.36
2022-10-31T09:02:42.619Z,14.41
2022-10-31T09:05:10.478Z,14.49
2022-10-31T09:07:38.589Z,14.51
2022-10-31T09:10:06.911Z,14.62
2022-10-31T09:12:36.573Z,14.76
2022-10-31T09:15:23.130Z,14.82
2022-10-31T09:17:58.957Z,14.90
2022-10-31T09:20:53.158Z,15.06
2022-10-31T09:23:23.702Z,15.15
2022-10-31T09:25:53.971Z,15.17
2022-10-31T09:28:43.808Z,15.23
2022-10-31T09:31:13.586Z,15.28
2022-10-31T09:33:50.520Z,15.36
2022-10-31T09:36:46.968Z,15.49
2022-10-31T09:39:21.978Z,15.62
2022-10-31T09:42:24.259Z,15.70
2022-10-31T09:45:19.428Z,15.82
2022-10-31T09:48:01.936Z,15.94
2022-10-31T09:50:44.141Z,16.06
2022-10-31T09:53:47.186Z,16.14
2022-10-31T09:56:23.855Z,16.24
2022-10-31T09:59:02.493Z,16.33
2022-10-31T10:01:46.095Z,16.36
2022-10-31T10:04:56.208Z,16.44
2022-10-31T10:07:33.318Z,16.46
2022-10-31T10:10:46.026Z,16.45
2022-10-31T10:14:10.164Z,16.54
2022-10-31T10:17:12.863Z,16.55
2022-10-31T10:20:19.844Z,16.56
2022-10-31T10:22:59.412Z,16.60
2022-10-31T10:25:47.735Z,16.59
2022-10-31T10:28:22.531Z,16.68
2022-10-31T10:31:05.890Z,16.75
2022-10-31T10:33:52.704Z,16.81
2022-10-31T10:36:51.204Z,16.82
2022-10-31T10:39:26.172Z,16.81
2022-10-31T10:42:12.454Z,16.77
2022-10-31T10:45:05.427Z,16.82
2022-10-31T10:47:43.381Z,16.82
2022-10-31T10:50:25.666Z,16.87
2022-10-31T10:53:09.289Z,16.95
2022-10-31T10:55:49.960Z,16.97
2022-10-31T10:58:17.890Z,16.94
2022-10-31T11:00:48.799Z,17.02
2022-10-31T11:03:19.803Z,17.05
2022-10-31T11:06:00.792Z,17.09
2022-10-31T11:08:35.424Z,17.10
2022-10-31T11:11:31.874Z,17.12
2022-10-31T11:14:15.920Z,17.11
2022-10-31T11:16:49.240Z,17.11
2022-10-31T11:19:22.716Z,17.11
2022-10-31T11:21:53.667Z,17.07
2022-10-31T11:24:27.249Z,16.97
2022-10-31T11:27:14.171Z,16.97
2022-10-31T11:29:41.864Z,17.03
2022-10-31T11:32:28.174Z,16.98
2022-10-31T11:35:00.926Z,16.94
2022-10-31T11:37:36.193Z,16.93
2022-10-31T11:40:08.053Z,16.95
2022-10-31T11:42:45.904Z,16.92
2022-10-31T11:45:29.706Z,16.89
2022-10-31T11:48:00.093Z,16.92
2022-10-31T11:50:52.577Z,16.93
2022-10-31T11:53:30.373Z,16.93
2022-10-31T11:56:17.593Z,16.92
2022-10-31T11:58:57.730Z,16.96
2022-10-31T12:01:29.909Z,17.10
2022-10-31T12:04:00.392Z,17.22
2022-10-31T12:06:42.082Z,17.33
2022-10-31T12:09:18.798Z,17.42
2022-10-31T12:12:12.848Z,17.51
2022-10-31T12:15:11.732Z,17.55
2022-10-31T12:17:49.863Z,17.56
2022-10-31T12:20:24.273Z,17.48
2022-10-31T12:23:23.521Z,17.40
2022-10-31T12:26:19.465Z,17.31
2022-10-31T12:29:09.230Z,17.31
2022-10-31T12:32:17.235Z,17.38
2022-10-31T12:34:53.896Z,17.41
2022-10-31T12:37:41.244Z,17.39
2022-10-31T12:41:00.794Z,17.42
2022-10-31T12:43:50.992Z,17.44
2022-10-31T12:46:58.087Z,17.46
2022-10-31T12:50:18.350Z,17.43
2022-10-31T12:53:26.869Z,17.35
2022-10-31T12:56:15.870Z,17.23
2022-10-31T12:58:54.321Z,17.13
2022-10-31T13:01:56.606Z,17.06
2022-10-31T13:04:37.727Z,17.08
2022-10-31T13:07:40.348Z,17.10
2022-10-31T13:10:20.024Z,17.17
2022-10-31T13:12:52.534Z,17.22
2022-10-31T13:15:27.523Z,17.22
2022-10-31T13:18:05.831Z,17.27
2022-10-31T13:20:43.141Z,17.35
2022-10-31T13:23:52.143Z,17.35
2022-10-31T13:26:25.612Z,17.37
2022-10-31T13:29:04.309Z,17.39
2022-10-31T13:31:32.072Z,17.40
2022-10-31T13:34:10.343Z,17.39
2022-10-31T13:36:55.559Z,17.28
2022-10-31T13:39:36.860Z,17.22
2022-10-31T13:42:54.886Z,17.19
2022-10-31T13:45:26.477Z,17.15
2022-10-31T13:48:03.115Z,17.18
2022-10-31T13:50:33.988Z,17.26
2022-10-31T13:53:23.283Z,17.31
2022-10-31T13:56:25.021Z,17.36
2022-10-31T13:59:07.941Z,17.36
2022-10-31T14:01:36.922Z,17.43
2022-10-31T14:04:25.518Z,17.54
2022-10-31T14:07:09.012Z,17.61
2022-10-31T14:10:05.016Z,17.68
2022-10-31T14:12:43.690Z,17.74
2022-10-31T14:15:25.313Z,17.75
2022-10-31T14:17:56.836Z,17.70
2022-10-31T14:20:44.544Z,17.67
2022-10-31T14:23:31.216Z,17.67
2022-10-31T14:26:29.704Z,17.65
2022-10-31T14:29:01.685Z,17.64
2022-10-31T14:31:40.680Z,17.61
2022-10-31T14:34:23.371Z,17.64
2022-10-31T14:37:21.138Z,17.67
2022-10-31T14:39:52.019Z,17.59
2022-10-31T14:42:39.903Z,17.50
2022-10-31T14:45:45.126Z,17.35
2022-10-31T14:48:34.050Z,17.24
2022-10-31T14:51:11.751Z,17.17
2022-10-31T14:53:56.386Z,17.09
2022-10-31T14:56:30.610Z,17.03
2022-10-31T14:59:04.316Z,17.00
2022-10-31T15:01:37.838Z,16.89
2022-10-31T15:04:24.769Z,16.81
2022-10-31T15:07:19.203Z,16.73
2022-10-31T15:10:07.831Z,16.66
2022-10-31T15:12:39.683Z,16.65
2022-10-31T15:15:18.829Z,16.64
2022-10-31T15:18:00.938Z,16.53
2022-10-31T15:20:43.895Z,16.43
2022-10-31T15:23:23.919Z,16.35
2022-10-31T15:25:58.946Z,16.33
2022-10-31T15:28:27.433Z,16.28
2022-10-31T15:31:00.114Z,16.28
2022-10-31T15:33:50.653Z,16.29
2022-10-31T15:36:27.760Z,16.26
2022-10-31T15:38:58.786Z,16.18
2022-10-31T15:41:43.707Z,16.13
2022-10-31T15:44:31.975Z,16.08
2022-10-31T15:47:04.337Z,16.07
2022-10-31T15:49:42.320Z,16.00
2022-10-31T15:52:24.751Z,15.98
2022-10-31T15:54:56.791Z,15.96
2022-10-31T15:57:27.105Z,15.96
2022-10-31T15:59:55.666Z,15.89
2022-10-31T16:02:27.539Z,15.88
2022-10-31T16:05:02.268Z,15.84
2022-10-31T16:07:31.235Z,15.78
2022-10-31T16:10:04.820Z,15.81
2022-10-31T16:12:46.858Z,15.78
2022-10-31T16:15:18.557Z,15.72
2022-10-31T16:17:50.190Z,15.70
2022-10-31T16:20:28.548Z,15.67
2022-10-31T16:22:59.439Z,15.67
2022-10-31T16:25:37.969Z,15.66
2022-10-31T16:28:16.378Z,15.61
2022-10-31T16:30:52.990Z,15.63
2022-10-31T16:33:25.101Z,15.62
2022-10-31T16:36:04.116Z,15.63
2022-10-31T16:38:38.142Z,15.65
2022-10-31T16:41:05.867Z,15.63
2022-10-31T16:43:33.802Z,15.56
2022-10-31T16:46:01.648Z,15.50
2022-10-31T16:48:29.358Z,15.46
2022-10-31T16:50:57.200Z,15.42
2022-10-31T16:53:25.642Z,15.39
2022-10-31T16:56:00.356Z,15.38
2022-10-31T16:58:31.715Z,15.33
2022-10-31T17:01:01.959Z,15.31
2022-10-31T17:03:29.776Z,15.33
2022-10-31T17:05:57.715Z,15.31
2022-10-31T17:08:26.291Z,15.30
2022-10-31T17:10:57.265Z,15.29
2022-10-31T17:13:29.919Z,15.27
2022-10-31T17:16:04.149Z,15.22
2022-10-31T17:18:32.504Z,15.17
2022-10-31T17:21:03.524Z,15.10
2022-10-31T17:23:33.206Z,15.02
2022-10-31T17:26:01.028Z,14.93
2022-10-31T17:28:28.953Z,14.89
2022-10-31T17:30:58.984Z,14.83
2022-10-31T17:33:26.921Z,14.72
2022-10-31T17:35:55.033Z,14.62
2022-10-31T17:38:23.171Z,14.53
2022-10-31T17:40:50.887Z,14.47
2022-10-31T17:43:18.893Z,14.39
2022-10-31T17:45:46.835Z,14.28
2022-10-31T17:48:14.485Z,14.19
2022-10-31T17:50:42.149Z,14.13
2022-10-31T17:53:09.845Z,14.08
2022-10-31T17:55:37.847Z,14.05
2022-10-31T17:58:05.787Z,14.04
2022-10-31T18:00:34.216Z,14.05
2022-10-31T18:03:04.435Z,14.05
2022-10-31T18:05:33.814Z,14.01
2022-10-31T18:08:04.121Z,14.01
2022-10-31T18:10:32.350Z,13.99
2022-10-31T18:13:00.504Z,13.99
2022-10-31T18:15:28.440Z,13.97
2022-10-31T18:17:56.441Z,13.95
2022-10-31T18:20:24.199Z,13.96
2022-10-31T18:22:51.908Z,13.98
2022-10-31T18:25:19.620Z,13.99
2022-10-31T18:27:47.636Z,14.00
2022-10-31T18:30:15.593Z,14.03
2022-10-31T18:32:43.283Z,14.04
2022-10-31T18:35:11.293Z,14.07
2022-10-31T18:37:39.882Z,14.10
2022-10-31T18:40:08.522Z,14.12
2022-10-31T18:42:38.488Z,14.15
2022-10-31T18:45:11.912Z,14.18
2022-10-31T18:47:52.480Z,14.18
2022-10-31T18:50:21.562Z,14.20
2022-10-31T18:52:49.420Z,14.25
2022-10-31T18:55:17.240Z,14.26
2022-10-31T18:57:45.119Z,14.28
2022-10-31T19:00:14.446Z,14.30
2022-10-31T19:02:42.404Z,14.31
2022-10-31T19:05:10.098Z,14.33
2022-10-31T19:07:37.832Z,14.36
2022-10-31T19:10:06.343Z,14.37
2022-10-31T19:12:34.196Z,14.38
2022-10-31T19:15:02.423Z,14.39
2022-10-31T19:17:30.300Z,14.46
2022-10-31T19:19:58.023Z,14.50
2022-10-31T19:22:25.693Z,14.54
2022-10-31T19:24:53.368Z,14.54
2022-10-31T19:27:21.033Z,14.57
2022-10-31T19:29:48.882Z,14.58
2022-10-31T19:32:16.612Z,14.57
2022-10-31T19:34:45.119Z,14.56
2022-10-31T19:37:13.333Z,14.58
2022-10-31T19:39:44.208Z,14.62
2022-10-31T19:42:12.304Z,14.63
2022-10-31T19:44:40.055Z,14.63
2022-10-31T19:47:07.844Z,14.64
2022-10-31T19:49:35.601Z,14.67
2022-10-31T19:52:03.468Z,14.72
2022-10-31T19:54:32.101Z,14.76
2022-10-31T19:56:59.927Z,14.74
2022-10-31T19:59:27.703Z,14.75
2022-10-31T20:01:55.479Z,14.80
2022-10-31T20:04:23.363Z,14.81
2022-10-31T20:06:51.918Z,14.85
2022-10-31T20:09:19.777Z,14.86
2022-10-31T20:11:47.455Z,14.87
2022-10-31T20:14:17.698Z,14.84
2022-10-31T20:16:46.083Z,14.83
2022-10-31T20:19:14.569Z,14.84
2022-10-31T20:21:42.600Z,14.81
2022-10-31T20:24:11.481Z,14.80
2022-10-31T20:26:40.985Z,14.81
2022-10-31T20:29:15.923Z,14.82
2022-10-31T20:31:46.089Z,14.82
2022-10-31T20:34:15.278Z,14.83
2022-10-31T20:36:43.405Z,14.86
2022-10-31T20:39:11.118Z,14.89
2022-10-31T20:41:42.287Z,14.91
2022-10-31T20:44:10.039Z,14.91
2022-10-31T20:46:37.790Z,14.94
2022-10-31T20:49:05.753Z,14.97
2022-10-31T20:51:33.528Z,14.97
2022-10-31T20:54:01.328Z,14.97
2022-10-31T20:56:29.509Z,14.97
2022-10-31T20:58:58.277Z,14.97
2022-10-31T21:01:33.397Z,14.97
2022-10-31T21:04:02.978Z,14.97
2022-10-31T21:06:31.102Z,14.94
2022-10-31T21:08:58.924Z,14.93
2022-10-31T21:11:28.481Z,14.94
2022-10-31T21:13:58.354Z,14.96
2022-10-31T21:16:31.190Z,14.97
2022-10-31T21:19:00.822Z,14.97
2022-10-31T21:21:36.768Z,14.98
2022-10-31T21:24:10.645Z,14.98
2022-10-31T21:26:46.091Z,14.99
2022-10-31T21:29:15.852Z,14.96
2022-10-31T21:31:44.377Z,14.93
2022-10-31T21:34:12.332Z,14.89
2022-10-31T21:36:40.132Z,14.85
2022-10-31T21:39:09.974Z,14.80
2022-10-31T21:41:37.782Z,14.77
2022-10-31T21:44:06.015Z,14.70
2022-10-31T21:46:34.318Z,14.66
2022-10-31T21:49:04.013Z,14.63
2022-10-31T21:51:36.041Z,14.63
2022-10-31T21:54:23.137Z,14.57
2022-10-31T21:56:51.810Z,14.51
2022-10-31T21:59:19.516Z,14.45
2022-10-31T22:01:47.335Z,14.40
2022-10-31T22:04:15.185Z,14.37
2022-10-31T22:06:43.306Z,14.35
2022-10-31T22:09:13.895Z,14.35
2022-10-31T22:11:42.952Z,14.35
2022-10-31T22:14:15.132Z,14.35
2022-10-31T22:16:43.317Z,14.35
2022-10-31T22:19:13.746Z,14.36
2022-10-31T22:21:46.533Z,14.36
2022-10-31T22:24:16.264Z,14.34
2022-10-31T22:26:44.404Z,14.34
2022-10-31T22:29:17.330Z,14.33
2022-10-31T22:31:50.627Z,14.30
2022-10-31T22:34:21.385Z,14.28
2022-10-31T22:36:49.224Z,14.27
2022-10-31T22:39:17.221Z,14.23
2022-10-31T22:41:44.953Z,14.18
2022-10-31T22:44:12.596Z,14.14
2022-10-31T22:46:40.482Z,14.09
2022-10-31T22:49:14.599Z,14.04
2022-10-31T22:51:44.301Z,14.01
2022-10-31T22:54:18.033Z,14.00
2022-10-31T22:56:46.902Z,14.00
2022-10-31T22:59:16.976Z,14.02
2022-10-31T23:01:45.974Z,14.04
2022-10-31T23:04:16.622Z,14.09
2022-10-31T23:06:44.820Z,14.11
2022-10-31T23:09:16.124Z,14.12
2022-10-31T23:11:45.012Z,14.14
2022-10-31T23:14:20.677Z,14.11
2022-10-31T23:16:55.110Z,14.11
2022-10-31T23:19:27.850Z,14.11
2022-10-31T23:22:00.599Z,14.10
2022-10-31T23:24:38.865Z,14.07
2022-10-31T23:27:23.009Z,14.03
2022-10-31T23:29:55.329Z,13.98
2022-10-31T23:32:35.309Z,13.92
2022-10-31T23:35:10.118Z,13.82
2022-10-31T23:37:39.182Z,13.73
2022-10-31T23:40:08.764Z,13.59
2022-10-31T23:42:36.476Z,13.47
2022-10-31T23:45:04.512Z,13.34
2022-10-31T23:47:32.195Z,13.20
2022-10-31T23:49:59.958Z,13.12
2022-10-31T23:52:27.665Z,13.06
2022-10-31T23:54:55.328Z,13.02
2022-10-31T23:57:22.981Z,12.98
2022-10-31T23:59:50.729Z,12.92
